createdAt,value
2018-11-27T00:00:41.350Z,3.87
2018-11-27T00:03:10.558Z,3.87
2018-11-27T00:05:39.849Z,3.88
2018-11-27T00:08:08.950Z,3.88
2018-11-27T00:10:42.958Z,3.89
2018-11-27T00:13:11.936Z,3.90
2018-11-27T00:15:40.868Z,3.89
2018-11-27T00:18:10.389Z,3.88
2018-11-27T00:20:39.569Z,3.89
2018-11-27T00:23:08.903Z,3.89
2018-11-27T00:25:37.913Z,3.87
2018-11-27T00:28:06.948Z,3.91
2018-11-27T00:30:36.326Z,3.89
2018-11-27T00:33:05.483Z,3.85
2018-11-27T00:35:34.719Z,3.87
2018-11-27T00:38:03.943Z,3.88
2018-11-27T00:40:33.087Z,3.87
2018-11-27T00:43:02.358Z,3.88
2018-11-27T00:45:31.398Z,3.86
2018-11-27T00:48:00.450Z,3.89
2018-11-27T00:50:29.869Z,3.87
2018-11-27T00:52:59.647Z,3.88
2018-11-27T00:55:28.746Z,3.86
2018-11-27T00:57:57.765Z,3.87
2018-11-27T01:00:26.985Z,3.88
2018-11-27T01:02:58.246Z,3.83
2018-11-27T01:05:27.456Z,3.81
2018-11-27T01:07:56.700Z,3.83
2018-11-27T01:10:27.564Z,3.83
2018-11-27T01:12:56.760Z,3.85
2018-11-27T01:15:25.998Z,3.84
2018-11-27T01:17:58.535Z,3.84
2018-11-27T01:20:29.467Z,3.86
2018-11-27T01:22:58.737Z,3.86
2018-11-27T01:25:27.883Z,3.85
2018-11-27T01:27:57.066Z,3.83
2018-11-27T01:30:26.383Z,3.85
2018-11-27T01:32:55.483Z,3.87
2018-11-27T01:35:25.148Z,3.87
2018-11-27T01:37:55.185Z,3.88
2018-11-27T01:40:25.264Z,3.89
2018-11-27T01:42:55.314Z,3.91
2018-11-27T01:45:25.276Z,3.88
2018-11-27T01:47:54.365Z,3.88
2018-11-27T01:50:23.561Z,3.86
2018-11-27T01:52:52.698Z,3.84
2018-11-27T01:55:22.909Z,3.84
2018-11-27T01:57:52.548Z,3.85
2018-11-27T02:00:24.165Z,3.84
2018-11-27T02:02:53.571Z,3.87
2018-11-27T02:05:23.360Z,3.84
2018-11-27T02:07:52.574Z,3.84
2018-11-27T02:10:21.794Z,3.84
2018-11-27T02:12:52.009Z,3.84
2018-11-27T02:15:22.028Z,3.88
2018-11-27T02:17:51.669Z,3.86
2018-11-27T02:20:20.759Z,3.85
2018-11-27T02:22:50.196Z,3.83
2018-11-27T02:25:21.314Z,3.84
2018-11-27T02:27:50.547Z,3.84
2018-11-27T02:30:21.216Z,3.83
2018-11-27T02:32:50.346Z,3.86
2018-11-27T02:35:20.562Z,3.90
2018-11-27T02:37:50.898Z,3.90
2018-11-27T02:40:20.063Z,3.89
2018-11-27T02:42:49.633Z,3.87
2018-11-27T02:45:20.042Z,3.85
2018-11-27T02:47:50.025Z,3.82
2018-11-27T02:50:20.133Z,3.82
2018-11-27T02:52:49.333Z,3.80
2018-11-27T02:55:21.653Z,3.80
2018-11-27T02:57:50.929Z,3.82
2018-11-27T03:00:24.057Z,3.80
2018-11-27T03:02:53.150Z,3.79
2018-11-27T03:05:24.042Z,3.77
2018-11-27T03:07:53.150Z,3.77
2018-11-27T03:10:22.489Z,3.78
2018-11-27T03:12:51.482Z,3.76
2018-11-27T03:15:20.782Z,3.76
2018-11-27T03:17:49.882Z,3.82
2018-11-27T03:20:19.372Z,3.80
2018-11-27T03:22:48.346Z,3.76
2018-11-27T03:25:19.397Z,3.78
2018-11-27T03:27:49.466Z,3.76
2018-11-27T03:30:20.237Z,3.77
2018-11-27T03:32:49.396Z,3.75
2018-11-27T03:35:19.740Z,3.74
2018-11-27T03:37:49.612Z,3.77
2018-11-27T03:40:22.462Z,3.77
2018-11-27T03:42:51.745Z,3.77
2018-11-27T03:45:21.449Z,3.79
2018-11-27T03:47:50.538Z,3.78
2018-11-27T03:50:26.798Z,3.80
2018-11-27T03:52:55.816Z,3.79
2018-11-27T03:55:24.923Z,3.78
2018-11-27T03:57:54.046Z,3.79
2018-11-27T04:00:25.162Z,3.76
2018-11-27T04:03:18.483Z,3.71
2018-11-27T04:05:47.595Z,3.75
2018-11-27T04:08:16.735Z,3.76
2018-11-27T04:10:45.816Z,3.78
2018-11-27T04:13:14.816Z,3.74
2018-11-27T04:15:43.973Z,3.75
2018-11-27T04:18:13.313Z,3.79
2018-11-27T04:20:42.561Z,3.81
2018-11-27T04:23:11.650Z,3.80
2018-11-27T04:25:40.694Z,3.79
2018-11-27T04:28:09.695Z,3.81
2018-11-27T04:30:39.210Z,3.81
2018-11-27T04:33:08.314Z,3.82
2018-11-27T04:35:37.452Z,3.83
2018-11-27T04:38:07.149Z,3.88
2018-11-27T04:40:36.365Z,3.90
2018-11-27T04:43:05.430Z,3.92
2018-11-27T04:45:34.711Z,3.94
2018-11-27T04:48:03.757Z,3.96
2018-11-27T04:50:32.869Z,3.97
2018-11-27T04:53:02.038Z,3.98
2018-11-27T04:55:31.117Z,3.98
2018-11-27T04:58:00.217Z,3.98
2018-11-27T05:00:29.525Z,3.98
2018-11-27T05:02:58.926Z,3.97
2018-11-27T05:05:28.046Z,3.97
2018-11-27T05:07:57.087Z,3.96
2018-11-27T05:10:26.212Z,3.96
2018-11-27T05:12:55.226Z,3.95
2018-11-27T05:15:26.560Z,3.97
2018-11-27T05:17:57.989Z,3.95
2018-11-27T05:20:27.378Z,3.94
2018-11-27T05:22:56.425Z,3.93
2018-11-27T05:25:25.759Z,3.95
2018-11-27T05:27:55.985Z,3.97
2018-11-27T05:30:26.188Z,3.94
2018-11-27T05:32:55.365Z,3.93
2018-11-27T05:35:26.733Z,3.94
2018-11-27T05:37:56.036Z,3.94
2018-11-27T05:40:26.337Z,3.94
2018-11-27T05:42:58.937Z,3.96
2018-11-27T05:45:28.213Z,3.97
2018-11-27T05:47:59.584Z,4.00
2018-11-27T05:50:29.106Z,3.97
2018-11-27T05:52:58.781Z,3.96
2018-11-27T05:55:27.789Z,3.97
2018-11-27T05:57:59.274Z,3.96
2018-11-27T06:00:29.450Z,3.97
2018-11-27T06:02:59.561Z,3.98
2018-11-27T06:05:28.661Z,3.98
2018-11-27T06:07:57.814Z,4.00
2018-11-27T06:10:26.963Z,4.00
2018-11-27T06:12:55.979Z,4.00
2018-11-27T06:15:25.643Z,3.95
2018-11-27T06:17:56.077Z,3.95
2018-11-27T06:20:25.106Z,3.96
2018-11-27T06:22:58.640Z,3.96
2018-11-27T06:25:28.885Z,3.94
2018-11-27T06:28:01.106Z,3.96
2018-11-27T06:30:31.151Z,3.95
2018-11-27T06:33:00.373Z,3.96
2018-11-27T06:35:32.362Z,3.95
2018-11-27T06:38:01.497Z,3.95
2018-11-27T06:40:31.501Z,3.96
2018-11-27T06:43:00.694Z,3.98
2018-11-27T06:45:29.722Z,3.97
2018-11-27T06:47:58.881Z,3.95
2018-11-27T06:50:28.043Z,3.95
2018-11-27T06:52:57.062Z,3.95
2018-11-27T06:55:26.261Z,3.95
2018-11-27T06:57:55.330Z,3.95
2018-11-27T07:00:25.700Z,3.93
2018-11-27T07:02:55.281Z,3.94
2018-11-27T07:05:24.470Z,3.94
2018-11-27T07:07:53.624Z,3.94
2018-11-27T07:10:29.552Z,3.94
2018-11-27T07:13:29.926Z,3.95
2018-11-27T07:15:58.992Z,3.96
2018-11-27T07:18:28.560Z,3.99
2018-11-27T07:20:58.001Z,3.96
2018-11-27T07:23:27.085Z,3.96
2018-11-27T07:25:56.420Z,3.98
2018-11-27T07:28:25.795Z,4.00
2018-11-27T07:30:54.881Z,4.01
2018-11-27T07:33:23.968Z,4.03
2018-11-27T07:35:53.477Z,4.03
2018-11-27T07:38:22.567Z,4.05
2018-11-27T07:40:51.693Z,4.06
2018-11-27T07:43:21.531Z,4.09
2018-11-27T07:45:55.046Z,4.12
2018-11-27T07:48:19.973Z,4.09
2018-11-27T07:50:49.113Z,4.08
2018-11-27T07:53:18.185Z,4.11
2018-11-27T07:55:47.299Z,4.13
2018-11-27T07:58:16.684Z,4.16
2018-11-27T08:00:45.952Z,4.19
2018-11-27T08:03:14.963Z,4.23
2018-11-27T08:05:44.097Z,4.26
2018-11-27T08:08:16.227Z,4.27
2018-11-27T08:10:46.765Z,4.28
2018-11-27T08:13:15.885Z,4.28
2018-11-27T08:15:44.935Z,4.28
2018-11-27T08:18:13.945Z,4.33
2018-11-27T08:20:43.341Z,4.37
2018-11-27T08:23:12.863Z,4.42
2018-11-27T08:25:42.009Z,4.47
2018-11-27T08:28:11.105Z,4.52
2018-11-27T08:30:40.268Z,4.53
2018-11-27T08:33:09.429Z,4.56
2018-11-27T08:35:38.551Z,4.61
2018-11-27T08:38:07.709Z,4.65
2018-11-27T08:40:36.823Z,4.69
2018-11-27T08:43:07.248Z,4.76
2018-11-27T08:45:50.141Z,4.78
2018-11-27T08:48:19.075Z,4.82
2018-11-27T08:50:48.173Z,4.89
2018-11-27T08:53:17.205Z,4.93
2018-11-27T08:55:49.906Z,4.99
2018-11-27T08:58:20.408Z,5.05
2018-11-27T09:00:49.501Z,5.12
2018-11-27T09:03:18.641Z,5.18
2018-11-27T09:05:55.639Z,5.22
2018-11-27T09:08:24.602Z,5.24
2018-11-27T09:10:53.563Z,5.25
2018-11-27T09:13:22.521Z,5.30
2018-11-27T09:15:59.865Z,5.30
2018-11-27T09:18:28.935Z,5.20
2018-11-27T09:20:57.917Z,5.24
2018-11-27T09:23:27.010Z,5.25
2018-11-27T09:26:07.883Z,5.30
2018-11-27T09:28:36.871Z,5.38
2018-11-27T09:31:07.084Z,5.43
2018-11-27T09:33:36.269Z,5.50
2018-11-27T09:36:05.454Z,5.46
2018-11-27T09:38:34.470Z,5.46
2018-11-27T09:41:03.522Z,5.48
2018-11-27T09:43:32.593Z,5.45
2018-11-27T09:46:03.694Z,5.54
2018-11-27T09:48:32.934Z,5.55
2018-11-27T09:51:01.919Z,5.61
2018-11-27T09:53:30.817Z,5.68
2018-11-27T09:55:59.973Z,5.63
2018-11-27T09:58:29.015Z,5.57
2018-11-27T10:00:57.957Z,5.60
2018-11-27T10:03:26.980Z,5.63
2018-11-27T10:05:57.021Z,5.61
2018-11-27T10:08:26.153Z,5.59
2018-11-27T10:10:55.085Z,5.58
2018-11-27T10:13:24.333Z,5.58
2018-11-27T10:16:00.904Z,5.67
2018-11-27T10:18:29.834Z,5.79
2018-11-27T10:20:58.873Z,5.88
2018-11-27T10:23:27.899Z,5.93
2018-11-27T10:25:57.915Z,5.95
2018-11-27T10:28:31.912Z,5.90
2018-11-27T10:30:56.985Z,5.85
2018-11-27T10:33:26.028Z,5.78
2018-11-27T10:35:58.817Z,5.76
2018-11-27T10:38:27.941Z,5.74
2018-11-27T10:40:56.985Z,5.72
2018-11-27T10:43:25.985Z,5.69
2018-11-27T10:45:55.102Z,5.61
2018-11-27T10:48:24.154Z,5.66
2018-11-27T10:50:53.417Z,5.77
2018-11-27T10:53:22.434Z,5.76
2018-11-27T10:55:51.472Z,5.71
2018-11-27T10:58:20.600Z,5.68
2018-11-27T11:00:54.810Z,5.56
2018-11-27T11:03:24.709Z,5.48
2018-11-27T11:05:55.397Z,5.43
2018-11-27T11:08:24.448Z,5.45
2018-11-27T11:10:54.050Z,5.47
2018-11-27T11:13:24.566Z,5.48
2018-11-27T11:15:53.618Z,5.52
2018-11-27T11:18:22.641Z,5.54
2018-11-27T11:20:51.872Z,5.55
2018-11-27T11:23:20.874Z,5.60
2018-11-27T11:25:54.398Z,5.66
2018-11-27T11:28:25.520Z,5.70
2018-11-27T11:30:54.890Z,5.76
2018-11-27T11:33:23.951Z,5.78
2018-11-27T11:35:53.623Z,5.91
2018-11-27T11:38:22.967Z,6.05
2018-11-27T11:40:52.138Z,6.20
2018-11-27T11:43:21.101Z,6.36
2018-11-27T11:45:58.516Z,6.45
2018-11-27T11:48:27.620Z,6.51
2018-11-27T11:50:56.617Z,6.63
2018-11-27T11:53:25.733Z,6.73
2018-11-27T11:56:02.411Z,6.83
2018-11-27T11:58:31.723Z,6.81
2018-11-27T12:01:01.210Z,6.87
2018-11-27T12:03:30.546Z,6.99
2018-11-27T12:05:59.773Z,7.04
2018-11-27T12:08:28.870Z,7.12
2018-11-27T12:10:57.861Z,6.97
2018-11-27T12:13:27.199Z,6.92
2018-11-27T12:15:59.682Z,6.94
2018-11-27T12:18:28.723Z,6.93
2018-11-27T12:20:58.055Z,6.96
2018-11-27T12:23:27.329Z,6.92
2018-11-27T12:26:03.686Z,6.85
2018-11-27T12:28:32.698Z,6.79
2018-11-27T12:31:01.625Z,6.73
2018-11-27T12:33:30.621Z,6.72
2018-11-27T12:36:00.739Z,6.67
2018-11-27T12:38:29.709Z,6.44
2018-11-27T12:40:58.765Z,6.47
2018-11-27T12:43:27.879Z,6.42
2018-11-27T12:46:02.947Z,6.41
2018-11-27T12:48:31.985Z,6.41
2018-11-27T12:51:01.087Z,6.47
2018-11-27T12:53:30.101Z,6.46
2018-11-27T12:56:01.305Z,6.40
2018-11-27T12:58:30.353Z,6.37
2018-11-27T13:00:59.694Z,6.28
2018-11-27T13:03:28.724Z,6.17
2018-11-27T13:06:07.509Z,6.11
2018-11-27T13:08:36.503Z,6.07
2018-11-27T13:11:11.382Z,6.02
2018-11-27T13:13:35.233Z,5.98
2018-11-27T13:16:09.432Z,5.93
2018-11-27T13:18:38.599Z,5.91
2018-11-27T13:21:07.874Z,5.93
2018-11-27T13:23:37.022Z,5.94
2018-11-27T13:26:06.274Z,5.91
2018-11-27T13:28:35.350Z,5.91
2018-11-27T13:31:07.371Z,5.89
2018-11-27T13:33:45.482Z,5.92
2018-11-27T13:36:31.259Z,5.85
2018-11-27T13:39:11.196Z,5.82
2018-11-27T13:41:40.329Z,5.85
2018-11-27T13:44:09.403Z,5.87
2018-11-27T13:46:41.761Z,5.83
2018-11-27T13:49:10.737Z,5.81
2018-11-27T13:51:39.773Z,5.89
2018-11-27T13:54:08.854Z,5.90
2018-11-27T13:56:48.606Z,5.91
2018-11-27T13:59:17.851Z,5.91
2018-11-27T14:01:46.903Z,5.84
2018-11-27T14:04:16.003Z,5.79
2018-11-27T14:06:53.398Z,5.71
2018-11-27T14:09:22.449Z,5.61
2018-11-27T14:11:51.481Z,5.60
2018-11-27T14:14:20.472Z,5.53
2018-11-27T14:17:02.277Z,5.41
2018-11-27T14:19:31.350Z,5.35
2018-11-27T14:22:00.364Z,5.25
2018-11-27T14:24:29.545Z,5.15
2018-11-27T14:27:08.313Z,5.08
2018-11-27T14:29:37.533Z,5.03
2018-11-27T14:32:07.082Z,5.05
2018-11-27T14:34:36.190Z,5.05
2018-11-27T14:37:05.747Z,5.04
2018-11-27T14:39:35.446Z,5.03
2018-11-27T14:42:04.430Z,4.99
2018-11-27T14:44:33.809Z,4.97
2018-11-27T14:47:16.373Z,4.94
2018-11-27T14:49:45.526Z,4.92
2018-11-27T14:52:14.593Z,4.92
2018-11-27T14:54:43.632Z,4.92
2018-11-27T14:57:21.704Z,4.92
2018-11-27T14:59:51.052Z,4.86
2018-11-27T15:02:20.266Z,4.81
2018-11-27T15:04:49.396Z,4.78
2018-11-27T15:07:26.057Z,4.72
2018-11-27T15:09:55.041Z,4.67
2018-11-27T15:12:24.156Z,4.62
2018-11-27T15:14:53.322Z,4.56
2018-11-27T15:17:22.393Z,4.52
2018-11-27T15:19:51.639Z,4.47
2018-11-27T15:22:20.733Z,4.40
2018-11-27T15:24:49.870Z,4.32
2018-11-27T15:27:19.054Z,4.28
2018-11-27T15:29:48.113Z,4.29
2018-11-27T15:32:17.672Z,4.19
2018-11-27T15:34:46.781Z,4.12
2018-11-27T15:37:17.966Z,4.05
2018-11-27T15:39:47.131Z,3.97
2018-11-27T15:42:16.151Z,3.90
2018-11-27T15:44:45.569Z,3.81
2018-11-27T15:47:16.731Z,3.75
2018-11-27T15:49:45.840Z,3.68
2018-11-27T15:52:14.881Z,3.62
2018-11-27T15:54:44.213Z,3.51
2018-11-27T15:57:17.226Z,3.39
2018-11-27T15:59:46.319Z,3.28
2018-11-27T16:02:15.349Z,3.23
2018-11-27T16:04:44.434Z,3.23
2018-11-27T16:07:24.441Z,3.21
2018-11-27T16:09:53.593Z,3.14
2018-11-27T16:12:22.613Z,3.08
2018-11-27T16:14:51.753Z,3.02
2018-11-27T16:17:20.914Z,2.97
2018-11-27T16:19:50.118Z,2.93
2018-11-27T16:22:19.165Z,2.88
2018-11-27T16:24:48.314Z,2.82
2018-11-27T16:27:22.318Z,2.74
2018-11-27T16:29:51.356Z,2.66
2018-11-27T16:32:20.509Z,2.62
2018-11-27T16:34:49.694Z,2.61
2018-11-27T16:37:25.153Z,2.62
2018-11-27T16:39:54.293Z,2.66
2018-11-27T16:42:23.210Z,2.69
2018-11-27T16:44:52.649Z,2.72
2018-11-27T16:47:21.743Z,2.70
2018-11-27T16:49:50.693Z,2.66
2018-11-27T16:52:19.829Z,2.60
2018-11-27T16:54:48.884Z,2.58
2018-11-27T16:57:22.514Z,2.62
2018-11-27T16:59:51.542Z,2.70
2018-11-27T17:02:20.456Z,2.80
2018-11-27T17:04:49.553Z,2.90
2018-11-27T17:07:22.831Z,2.96
2018-11-27T17:09:52.041Z,2.95
2018-11-27T17:12:21.223Z,2.92
2018-11-27T17:14:50.311Z,2.92
2018-11-27T17:17:19.829Z,2.96
2018-11-27T17:19:49.638Z,2.98
2018-11-27T17:22:18.757Z,3.00
2018-11-27T17:24:48.087Z,3.04
2018-11-27T17:27:17.216Z,3.08
2018-11-27T17:29:46.253Z,3.11
2018-11-27T17:32:15.300Z,3.13
2018-11-27T17:34:44.351Z,3.14
2018-11-27T17:37:13.465Z,3.16
2018-11-27T17:39:42.549Z,3.15
2018-11-27T17:42:11.674Z,3.14
2018-11-27T17:44:41.133Z,3.12
2018-11-27T17:47:10.510Z,3.11
2018-11-27T17:49:39.553Z,3.10
2018-11-27T17:52:08.837Z,3.09
2018-11-27T17:54:38.309Z,3.07
2018-11-27T17:57:11.446Z,3.07
2018-11-27T17:59:40.605Z,3.07
2018-11-27T18:02:10.097Z,3.11
2018-11-27T18:04:39.149Z,3.12
2018-11-27T18:07:07.975Z,3.16
2018-11-27T18:09:37.581Z,3.21
2018-11-27T18:12:07.297Z,3.26
2018-11-27T18:14:36.416Z,3.29
2018-11-27T18:17:05.581Z,3.33
2018-11-27T18:19:35.322Z,3.31
2018-11-27T18:22:04.473Z,3.32
2018-11-27T18:24:33.522Z,3.33
2018-11-27T18:27:06.358Z,3.36
2018-11-27T18:29:35.521Z,3.36
2018-11-27T18:32:04.697Z,3.36
2018-11-27T18:34:34.033Z,3.38
2018-11-27T18:37:03.141Z,3.39
2018-11-27T18:39:32.572Z,3.40
2018-11-27T18:42:01.997Z,3.38
2018-11-27T18:44:31.273Z,3.34
2018-11-27T18:47:00.587Z,3.25
2018-11-27T18:49:29.699Z,3.11
2018-11-27T18:51:58.813Z,2.92
2018-11-27T18:54:27.933Z,2.74
2018-11-27T18:56:57.505Z,2.57
2018-11-27T18:59:26.665Z,2.39
2018-11-27T19:01:55.812Z,2.22
2018-11-27T19:04:24.933Z,2.05
2018-11-27T19:06:53.974Z,1.86
2018-11-27T19:09:23.189Z,1.70
2018-11-27T19:11:52.393Z,1.56
2018-11-27T19:14:21.615Z,1.43
2018-11-27T19:16:51.282Z,1.29
2018-11-27T19:19:20.568Z,1.07
2018-11-27T19:21:49.813Z,0.84
2018-11-27T19:24:19.289Z,0.64
2018-11-27T19:26:48.513Z,0.53
2018-11-27T19:29:17.918Z,0.44
2018-11-27T19:31:47.194Z,0.27
2018-11-27T19:34:16.705Z,0.12
2018-11-27T19:36:45.999Z,-0.10
2018-11-27T19:39:15.486Z,-0.33
2018-11-27T19:41:44.991Z,-0.53
2018-11-27T19:44:14.470Z,-0.70
2018-11-27T19:46:43.966Z,-0.84
2018-11-27T19:49:13.593Z,-1.00
2018-11-27T19:51:42.990Z,-1.13
2018-11-27T19:54:12.336Z,-1.19
2018-11-27T19:56:41.920Z,-1.28
2018-11-27T19:59:11.522Z,-1.39
2018-11-27T20:01:41.084Z,-1.49
2018-11-27T20:04:11.102Z,-1.62
2018-11-27T20:06:40.664Z,-1.75
2018-11-27T20:09:10.886Z,-1.83
2018-11-27T20:11:40.605Z,-1.88
2018-11-27T20:14:10.049Z,-1.88
2018-11-27T20:16:39.710Z,-1.89
2018-11-27T20:19:09.284Z,-1.94
2018-11-27T20:21:48.156Z,-1.92
2018-11-27T20:24:18.210Z,-1.98
2018-11-27T20:26:47.707Z,-2.04
2018-11-27T20:29:17.365Z,-2.09
2018-11-27T20:31:46.850Z,-2.11
2018-11-27T20:34:16.736Z,-2.17
2018-11-27T20:36:47.075Z,-2.20
2018-11-27T20:39:17.024Z,-2.21
2018-11-27T20:41:46.265Z,-2.22
2018-11-27T20:44:15.567Z,-2.26
2018-11-27T20:46:45.410Z,-2.28
2018-11-27T20:49:14.815Z,-2.31
2018-11-27T20:51:44.043Z,-2.32
2018-11-27T20:54:13.469Z,-2.30
2018-11-27T20:56:43.199Z,-2.26
2018-11-27T20:59:15.623Z,-2.22
2018-11-27T21:01:45.067Z,-2.18
2018-11-27T21:04:14.223Z,-2.17
2018-11-27T21:06:43.376Z,-2.16
2018-11-27T21:09:14.699Z,-2.17
2018-11-27T21:11:57.513Z,-2.19
2018-11-27T21:14:26.465Z,-2.18
2018-11-27T21:16:55.573Z,-2.17
2018-11-27T21:19:24.798Z,-2.17
2018-11-27T21:21:53.959Z,-2.16
2018-11-27T21:24:23.827Z,-2.18
2018-11-27T21:26:53.271Z,-2.17
2018-11-27T21:29:24.040Z,-2.18
2018-11-27T21:31:53.422Z,-2.21
2018-11-27T21:34:22.695Z,-2.24
2018-11-27T21:36:51.917Z,-2.32
2018-11-27T21:39:21.967Z,-2.34
2018-11-27T21:41:51.049Z,-2.38
2018-11-27T21:44:20.784Z,-2.42
2018-11-27T21:46:49.867Z,-2.45
2018-11-27T21:49:18.808Z,-2.42
2018-11-27T21:51:47.768Z,-2.34
2018-11-27T21:54:16.745Z,-2.30
2018-11-27T21:56:46.133Z,-2.32
2018-11-27T21:59:15.283Z,-2.36
2018-11-27T22:01:44.983Z,-2.42
2018-11-27T22:04:14.291Z,-2.48
2018-11-27T22:06:43.308Z,-2.52
2018-11-27T22:09:12.589Z,-2.54
2018-11-27T22:11:41.553Z,-2.60
2018-11-27T22:14:10.521Z,-2.59
2018-11-27T22:16:40.546Z,-2.60
2018-11-27T22:19:09.658Z,-2.67
2018-11-27T22:21:43.526Z,-2.73
2018-11-27T22:24:13.183Z,-2.81
2018-11-27T22:26:47.000Z,-2.88
2018-11-27T22:29:18.066Z,-2.95
2018-11-27T22:31:47.052Z,-2.97
2018-11-27T22:34:17.877Z,-2.94
2018-11-27T22:36:46.859Z,-2.92
2018-11-27T22:39:17.133Z,-2.93
2018-11-27T22:41:46.511Z,-2.94
2018-11-27T22:44:15.862Z,-3.01
2018-11-27T22:46:45.167Z,-2.94
2018-11-27T22:49:14.282Z,-2.96
2018-11-27T22:51:43.138Z,-2.97
2018-11-27T22:54:21.538Z,-2.99
2018-11-27T22:56:50.979Z,-3.00
2018-11-27T22:59:25.274Z,-2.98
2018-11-27T23:01:55.140Z,-2.88
2018-11-27T23:04:24.493Z,-2.81
2018-11-27T23:06:53.682Z,-2.73
2018-11-27T23:09:22.790Z,-2.68
2018-11-27T23:11:52.341Z,-2.68
2018-11-27T23:14:21.918Z,-2.67
2018-11-27T23:16:50.956Z,-2.66
2018-11-27T23:19:19.959Z,-2.68
2018-11-27T23:21:48.971Z,-2.71
2018-11-27T23:24:18.020Z,-2.69
2018-11-27T23:26:47.113Z,-2.59
2018-11-27T23:29:16.119Z,-2.58
2018-11-27T23:31:46.831Z,-2.60
2018-11-27T23:34:16.073Z,-2.61
2018-11-27T23:36:44.963Z,-2.61
2018-11-27T23:39:14.250Z,-2.65
2018-11-27T23:41:43.279Z,-2.67
2018-11-27T23:44:12.508Z,-2.65
2018-11-27T23:46:41.593Z,-2.63
2018-11-27T23:49:12.054Z,-2.67
2018-11-27T23:51:41.102Z,-2.68
2018-11-27T23:54:10.091Z,-2.68
2018-11-27T23:56:39.069Z,-2.70
2018-11-27T23:59:11.859Z,-2.74
